createdAt,value
2017-12-23T00:01:11.713Z,10.10
2017-12-23T00:03:38.146Z,11.77
2017-12-23T00:06:04.590Z,10.30
2017-12-23T00:08:31.003Z,9.95
2017-12-23T00:10:58.176Z,10.13
2017-12-23T00:13:24.633Z,10.10
2017-12-23T00:15:51.081Z,9.90
2017-12-23T00:18:17.464Z,10.20
2017-12-23T00:20:43.909Z,10.05
2017-12-23T00:23:10.337Z,9.85
2017-12-23T00:25:36.739Z,9.90
2017-12-23T00:28:03.170Z,13.50
2017-12-23T00:30:29.722Z,9.77
2017-12-23T00:32:56.164Z,8.30
2017-12-23T00:35:22.694Z,9.13
2017-12-23T00:37:49.440Z,20.95
2017-12-23T00:40:15.858Z,15.65
2017-12-23T00:42:42.263Z,12.27
2017-12-23T00:45:08.708Z,14.87
2017-12-23T00:47:35.883Z,9.98
2017-12-23T00:50:02.435Z,9.73
2017-12-23T00:52:28.845Z,10.73
2017-12-23T00:54:55.333Z,11.57
2017-12-23T00:57:22.526Z,11.25
2017-12-23T00:59:49.665Z,9.88
2017-12-23T01:02:16.092Z,11.75
2017-12-23T01:04:42.525Z,12.32
2017-12-23T01:07:08.963Z,11.02
2017-12-23T01:09:36.154Z,9.80
2017-12-23T01:12:02.601Z,11.65
2017-12-23T01:14:28.986Z,12.88
2017-12-23T01:16:55.477Z,12.70
2017-12-23T01:19:21.873Z,13.55
2017-12-23T01:21:49.222Z,13.20
2017-12-23T01:24:15.894Z,14.68
2017-12-23T01:26:42.319Z,12.02
2017-12-23T01:29:08.730Z,14.65
2017-12-23T01:31:35.173Z,12.23
2017-12-23T01:34:01.593Z,10.98
2017-12-23T01:36:28.049Z,11.32
2017-12-23T01:38:54.465Z,12.40
2017-12-23T01:41:20.897Z,13.60
2017-12-23T01:43:47.358Z,12.23
2017-12-23T01:46:13.911Z,10.48
2017-12-23T01:48:40.398Z,11.40
2017-12-23T01:51:07.569Z,10.95
2017-12-23T01:53:33.985Z,11.18
2017-12-23T01:56:01.146Z,10.73
2017-12-23T01:58:27.557Z,10.90
2017-12-23T02:00:53.974Z,12.52
2017-12-23T02:03:21.140Z,12.88
2017-12-23T02:05:48.300Z,11.15
2017-12-23T02:08:15.437Z,11.80
2017-12-23T02:10:41.873Z,12.25
2017-12-23T02:13:09.035Z,11.43
2017-12-23T02:15:35.461Z,10.35
2017-12-23T02:18:01.857Z,10.40
2017-12-23T02:20:28.328Z,10.55
2017-12-23T02:22:55.478Z,9.90
2017-12-23T02:25:21.893Z,9.00
2017-12-23T02:27:48.502Z,9.60
2017-12-23T02:30:14.924Z,8.88
2017-12-23T02:32:41.371Z,10.60
2017-12-23T02:35:07.814Z,9.57
2017-12-23T02:37:34.250Z,8.90
2017-12-23T02:40:00.678Z,9.52
2017-12-23T02:42:27.085Z,9.23
2017-12-23T02:44:53.528Z,9.20
2017-12-23T02:47:20.734Z,8.85
2017-12-23T02:49:47.163Z,8.68
2017-12-23T02:52:14.405Z,8.45
2017-12-23T02:54:41.580Z,10.02
2017-12-23T02:57:07.994Z,8.90
2017-12-23T02:59:34.406Z,10.15
2017-12-23T03:02:00.814Z,8.63
2017-12-23T03:04:27.228Z,10.70
2017-12-23T03:06:53.625Z,10.15
2017-12-23T03:09:20.236Z,10.95
2017-12-23T03:11:46.868Z,10.98
2017-12-23T03:14:14.026Z,10.18
2017-12-23T03:16:40.469Z,9.82
2017-12-23T03:19:06.882Z,10.48
2017-12-23T03:21:34.149Z,11.45
2017-12-23T03:24:01.319Z,10.40
2017-12-23T03:26:27.881Z,10.18
2017-12-23T03:28:55.082Z,11.15
2017-12-23T03:31:22.253Z,10.25
2017-12-23T03:33:49.413Z,10.15
2017-12-23T03:36:15.881Z,10.48
2017-12-23T03:38:42.296Z,10.88
2017-12-23T03:41:08.743Z,10.82
2017-12-23T03:43:35.188Z,9.88
2017-12-23T03:46:01.613Z,10.13
2017-12-23T03:48:28.049Z,11.10
2017-12-23T03:50:54.558Z,9.23
2017-12-23T03:53:21.000Z,9.80
2017-12-23T03:55:48.206Z,9.25
2017-12-23T03:58:15.370Z,8.98
2017-12-23T04:00:42.541Z,9.40
2017-12-23T04:03:09.073Z,10.00
2017-12-23T04:05:35.540Z,9.43
2017-12-23T04:08:02.767Z,9.57
2017-12-23T04:10:29.151Z,9.60
2017-12-23T04:12:55.553Z,8.95
2017-12-23T04:15:22.704Z,8.90
2017-12-23T04:17:49.141Z,9.27
2017-12-23T04:20:15.609Z,8.60
2017-12-23T04:22:42.745Z,7.65
2017-12-23T04:25:09.909Z,8.50
2017-12-23T04:27:36.407Z,8.77
2017-12-23T04:30:02.896Z,8.43
2017-12-23T04:32:29.293Z,8.73
2017-12-23T04:34:56.564Z,8.35
2017-12-23T04:37:23.638Z,7.75
2017-12-23T04:39:50.233Z,6.90
2017-12-23T04:42:16.641Z,7.70
2017-12-23T04:44:43.873Z,7.18
2017-12-23T04:47:10.288Z,7.25
2017-12-23T04:49:36.710Z,6.35
2017-12-23T04:52:03.170Z,6.50
2017-12-23T04:54:29.590Z,7.62
2017-12-23T04:56:56.005Z,7.22
2017-12-23T04:59:22.614Z,5.62
2017-12-23T05:01:49.057Z,8.23
2017-12-23T05:04:15.455Z,8.90
2017-12-23T05:06:42.666Z,10.65
2017-12-23T05:09:09.081Z,8.73
2017-12-23T05:11:35.494Z,10.07
2017-12-23T05:14:01.957Z,8.98
2017-12-23T05:16:28.408Z,8.70
2017-12-23T05:18:54.797Z,9.55
2017-12-23T05:21:21.925Z,10.95
2017-12-23T05:23:48.336Z,8.98
2017-12-23T05:26:14.729Z,11.60
2017-12-23T05:28:41.164Z,9.40
2017-12-23T05:31:07.569Z,11.55
2017-12-23T05:33:34.778Z,11.77
2017-12-23T05:36:01.970Z,9.15
2017-12-23T05:38:28.381Z,11.90
2017-12-23T05:40:54.829Z,10.80
2017-12-23T05:43:21.972Z,10.77
2017-12-23T05:45:48.492Z,11.60
2017-12-23T05:48:14.925Z,10.60
2017-12-23T05:50:42.449Z,11.07
2017-12-23T05:53:08.873Z,10.27
2017-12-23T05:55:35.282Z,9.75
2017-12-23T05:58:01.737Z,11.00
2017-12-23T06:00:28.152Z,10.25
2017-12-23T06:02:54.607Z,10.02
2017-12-23T06:05:20.992Z,11.70
2017-12-23T06:07:48.433Z,10.80
2017-12-23T06:10:14.818Z,10.50
2017-12-23T06:12:41.321Z,11.20
2017-12-23T06:15:07.769Z,10.27
2017-12-23T06:17:34.206Z,10.40
2017-12-23T06:20:00.613Z,10.50
2017-12-23T06:22:27.777Z,10.05
2017-12-23T06:24:54.193Z,11.95
2017-12-23T06:27:20.626Z,9.35
2017-12-23T06:29:47.024Z,10.00
2017-12-23T06:32:13.409Z,9.23
2017-12-23T06:34:40.561Z,9.68
2017-12-23T06:37:06.996Z,9.80
2017-12-23T06:39:33.396Z,9.88
2017-12-23T06:41:59.851Z,8.75
2017-12-23T06:44:27.022Z,8.85
2017-12-23T06:46:53.429Z,8.10
2017-12-23T06:49:19.862Z,7.55
2017-12-23T06:51:47.033Z,8.73
2017-12-23T06:54:13.477Z,7.82
2017-12-23T06:56:39.884Z,7.50
2017-12-23T06:59:06.321Z,7.97
2017-12-23T07:01:32.726Z,7.90
2017-12-23T07:03:59.169Z,8.20
2017-12-23T07:06:26.397Z,9.65
2017-12-23T07:08:52.853Z,9.07
2017-12-23T07:11:19.290Z,7.90
2017-12-23T07:13:46.441Z,8.25
2017-12-23T07:16:13.615Z,9.25
2017-12-23T07:18:40.038Z,10.90
2017-12-23T07:21:06.502Z,9.82
2017-12-23T07:23:32.933Z,8.75
2017-12-23T07:25:59.359Z,10.27
2017-12-23T07:28:25.804Z,9.68
2017-12-23T07:30:52.248Z,10.80
2017-12-23T07:33:18.685Z,9.20
2017-12-23T07:35:45.118Z,10.75
2017-12-23T07:38:11.528Z,9.95
2017-12-23T07:40:37.948Z,9.75
2017-12-23T07:43:04.364Z,10.07
2017-12-23T07:45:30.777Z,12.70
2017-12-23T07:47:57.195Z,10.73
2017-12-23T07:50:23.600Z,11.70
2017-12-23T07:52:50.029Z,13.32
2017-12-23T07:55:16.457Z,10.65
2017-12-23T07:57:42.870Z,10.85
2017-12-23T08:00:09.293Z,10.73
2017-12-23T08:02:35.716Z,13.70
2017-12-23T08:05:02.891Z,11.45
2017-12-23T08:07:29.345Z,11.52
2017-12-23T08:09:55.797Z,10.43
2017-12-23T08:12:22.213Z,10.93
2017-12-23T08:14:48.654Z,14.05
2017-12-23T08:17:15.093Z,10.48
2017-12-23T08:19:41.595Z,11.60
2017-12-23T08:22:08.042Z,12.15
2017-12-23T08:24:34.433Z,11.35
2017-12-23T08:27:01.596Z,12.93
2017-12-23T08:29:28.035Z,11.38
2017-12-23T08:31:54.468Z,13.60
2017-12-23T08:34:20.929Z,14.02
2017-12-23T08:36:47.382Z,13.30
2017-12-23T08:39:13.990Z,11.25
2017-12-23T08:41:40.369Z,16.50
2017-12-23T08:44:06.817Z,11.77
2017-12-23T08:46:33.236Z,12.68
2017-12-23T08:48:59.905Z,12.55
2017-12-23T08:51:26.345Z,11.57
2017-12-23T08:53:52.844Z,10.05
2017-12-23T08:56:20.034Z,12.90
2017-12-23T08:58:46.448Z,18.85
2017-12-23T09:01:13.621Z,11.00
2017-12-23T09:03:40.301Z,8.70
2017-12-23T09:06:06.699Z,8.75
2017-12-23T09:08:33.124Z,8.70
2017-12-23T09:10:59.596Z,9.13
2017-12-23T09:13:26.029Z,7.95
2017-12-23T09:15:53.278Z,7.60
2017-12-23T09:18:19.677Z,6.93
2017-12-23T09:20:46.093Z,6.68
2017-12-23T09:23:12.546Z,7.10
2017-12-23T09:25:38.971Z,7.75
2017-12-23T09:28:05.376Z,6.00
2017-12-23T09:30:32.607Z,5.53
2017-12-23T09:32:59.113Z,6.93
2017-12-23T09:35:25.571Z,7.35
2017-12-23T09:37:52.034Z,6.80
2017-12-23T09:40:19.193Z,6.97
2017-12-23T09:42:45.616Z,7.80
2017-12-23T09:45:12.053Z,7.20
2017-12-23T09:47:38.478Z,6.65
2017-12-23T09:50:04.952Z,8.05
2017-12-23T09:52:31.397Z,5.30
2017-12-23T09:54:57.842Z,5.47
2017-12-23T09:57:24.264Z,6.18
2017-12-23T09:59:50.896Z,6.03
2017-12-23T10:02:17.317Z,5.25
2017-12-23T10:04:44.648Z,5.90
2017-12-23T10:07:11.172Z,5.95
2017-12-23T10:09:38.429Z,5.80
2017-12-23T10:12:04.931Z,5.60
2017-12-23T10:14:31.357Z,5.35
2017-12-23T10:16:57.773Z,6.10
2017-12-23T10:19:24.216Z,5.45
2017-12-23T10:21:51.449Z,5.70
2017-12-23T10:24:17.914Z,5.70
2017-12-23T10:26:44.341Z,6.03
2017-12-23T10:29:10.758Z,6.43
2017-12-23T10:31:37.194Z,6.20
2017-12-23T10:34:03.622Z,5.75
2017-12-23T10:36:30.130Z,5.07
2017-12-23T10:38:56.562Z,4.25
2017-12-23T10:41:22.980Z,4.12
2017-12-23T10:43:49.439Z,4.20
2017-12-23T10:46:15.939Z,4.50
2017-12-23T10:48:42.381Z,4.40
2017-12-23T10:51:08.822Z,4.65
2017-12-23T10:53:35.275Z,4.65
2017-12-23T10:56:01.669Z,4.45
2017-12-23T10:58:28.855Z,4.43
2017-12-23T11:00:55.363Z,5.05
2017-12-23T11:03:21.870Z,4.97
2017-12-23T11:05:49.058Z,5.35
2017-12-23T11:08:15.563Z,5.30
2017-12-23T11:10:42.763Z,5.60
2017-12-23T11:13:09.230Z,5.40
2017-12-23T11:15:35.637Z,5.70
2017-12-23T11:18:02.124Z,5.90
2017-12-23T11:20:29.280Z,4.75
2017-12-23T11:22:55.740Z,5.40
2017-12-23T11:25:22.188Z,4.82
2017-12-23T11:27:48.638Z,4.80
2017-12-23T11:30:15.056Z,4.53
2017-12-23T11:32:41.514Z,4.80
2017-12-23T11:35:08.797Z,4.30
2017-12-23T11:37:35.325Z,5.35
2017-12-23T11:40:02.526Z,4.10
2017-12-23T11:42:28.965Z,4.45
2017-12-23T11:44:55.411Z,4.72
2017-12-23T11:47:21.838Z,5.30
2017-12-23T11:49:48.293Z,5.22
2017-12-23T11:52:15.554Z,5.60
2017-12-23T11:54:42.042Z,5.68
2017-12-23T11:57:08.605Z,5.28
2017-12-23T11:59:35.833Z,5.10
2017-12-23T12:02:02.254Z,5.28
2017-12-23T12:04:28.696Z,5.40
2017-12-23T12:06:55.182Z,5.85
2017-12-23T12:09:22.539Z,5.32
2017-12-23T12:11:49.069Z,5.65
2017-12-23T12:14:16.256Z,6.97
2017-12-23T12:16:42.690Z,6.97
2017-12-23T12:19:09.104Z,6.00
2017-12-23T12:21:35.542Z,5.95
2017-12-23T12:24:01.967Z,5.40
2017-12-23T12:26:28.399Z,5.60
2017-12-23T12:28:54.825Z,6.85
2017-12-23T12:31:22.055Z,6.47
2017-12-23T12:33:48.534Z,7.70
2017-12-23T12:36:14.988Z,7.30
2017-12-23T12:38:41.506Z,7.93
2017-12-23T12:41:08.102Z,7.07
2017-12-23T12:43:34.567Z,5.75
2017-12-23T12:46:01.029Z,7.28
2017-12-23T12:48:27.438Z,5.80
2017-12-23T12:50:53.894Z,5.50
2017-12-23T12:53:20.337Z,5.43
2017-12-23T12:55:46.794Z,4.95
2017-12-23T12:58:13.195Z,5.43
2017-12-23T13:00:39.672Z,5.40
2017-12-23T13:03:06.231Z,7.55
2017-12-23T13:05:32.797Z,5.45
2017-12-23T13:07:59.253Z,6.25
2017-12-23T13:10:25.664Z,6.25
2017-12-23T13:12:52.208Z,6.40
2017-12-23T13:15:18.600Z,5.72
2017-12-23T13:17:45.025Z,6.37
2017-12-23T13:20:11.450Z,6.15
2017-12-23T13:22:37.918Z,6.45
2017-12-23T13:25:04.358Z,6.68
2017-12-23T13:27:30.808Z,6.35
2017-12-23T13:29:57.219Z,6.60
2017-12-23T13:32:23.666Z,6.03
2017-12-23T13:34:50.111Z,6.07
2017-12-23T13:37:17.314Z,5.12
2017-12-23T13:39:43.750Z,5.60
2017-12-23T13:42:10.181Z,7.50
2017-12-23T13:44:36.646Z,4.47
2017-12-23T13:47:03.104Z,5.72
2017-12-23T13:49:29.524Z,5.80
2017-12-23T13:51:55.941Z,7.22
2017-12-23T13:54:22.384Z,6.22
2017-12-23T13:56:48.810Z,6.30
2017-12-23T13:59:15.265Z,6.25
2017-12-23T14:01:41.703Z,5.97
2017-12-23T14:04:08.126Z,6.25
2017-12-23T14:06:34.639Z,6.72
2017-12-23T14:09:01.048Z,6.43
2017-12-23T14:11:27.658Z,6.00
2017-12-23T14:13:54.113Z,7.50
2017-12-23T14:16:20.606Z,7.18
2017-12-23T14:18:47.113Z,6.62
2017-12-23T14:21:14.276Z,7.97
2017-12-23T14:23:40.684Z,7.35
2017-12-23T14:26:07.140Z,7.40
2017-12-23T14:28:33.556Z,7.00
2017-12-23T14:31:00.121Z,8.63
2017-12-23T14:33:26.545Z,9.85
2017-12-23T14:35:53.764Z,8.23
2017-12-23T14:38:20.201Z,10.32
2017-12-23T14:40:46.665Z,14.23
2017-12-23T14:43:13.857Z,10.32
2017-12-23T14:45:40.362Z,7.70
2017-12-23T14:48:07.539Z,8.73
2017-12-23T14:50:33.962Z,6.75
2017-12-23T14:53:00.438Z,10.48
2017-12-23T14:55:26.868Z,9.50
2017-12-23T14:57:53.280Z,8.35
2017-12-23T15:00:19.785Z,9.70
2017-12-23T15:02:46.978Z,10.45
2017-12-23T15:05:13.418Z,8.25
2017-12-23T15:07:39.861Z,9.32
2017-12-23T15:10:06.326Z,7.75
2017-12-23T15:12:32.821Z,7.62
2017-12-23T15:14:59.295Z,7.50
2017-12-23T15:17:26.490Z,7.45
2017-12-23T15:19:52.940Z,6.87
2017-12-23T15:22:19.391Z,6.20
2017-12-23T15:24:45.806Z,6.70
2017-12-23T15:27:12.486Z,6.37
2017-12-23T15:29:39.675Z,7.00
2017-12-23T15:32:06.120Z,6.40
2017-12-23T15:34:32.530Z,6.30
2017-12-23T15:36:58.989Z,9.60
2017-12-23T15:39:25.421Z,10.18
2017-12-23T15:41:51.859Z,14.13
2017-12-23T15:44:18.293Z,7.60
2017-12-23T15:46:44.756Z,7.25
2017-12-23T15:49:11.165Z,9.00
2017-12-23T15:51:37.678Z,6.93
2017-12-23T15:54:04.096Z,7.40
2017-12-23T15:56:30.513Z,6.80
2017-12-23T15:58:57.004Z,6.32
2017-12-23T16:01:23.452Z,6.30
2017-12-23T16:03:50.680Z,6.22
2017-12-23T16:06:17.134Z,6.72
2017-12-23T16:08:44.387Z,7.75
2017-12-23T16:11:10.826Z,7.12
2017-12-23T16:13:37.269Z,6.75
2017-12-23T16:16:04.441Z,5.65
2017-12-23T16:18:30.924Z,6.32
2017-12-23T16:20:57.356Z,5.55
2017-12-23T16:23:23.845Z,5.40
2017-12-23T16:25:50.276Z,5.32
2017-12-23T16:28:16.715Z,5.00
2017-12-23T16:30:43.189Z,4.55
2017-12-23T16:33:09.715Z,4.57
2017-12-23T16:35:36.167Z,4.87
2017-12-23T16:38:02.596Z,5.05
2017-12-23T16:40:29.108Z,5.75
2017-12-23T16:42:55.550Z,5.72
2017-12-23T16:45:22.117Z,6.15
2017-12-23T16:47:49.326Z,5.47
2017-12-23T16:50:15.769Z,5.47
2017-12-23T16:52:42.199Z,5.00
2017-12-23T16:55:09.526Z,5.85
2017-12-23T16:57:35.957Z,8.15
2017-12-23T17:00:02.413Z,6.15
2017-12-23T17:02:29.005Z,6.40
2017-12-23T17:04:55.542Z,7.80
2017-12-23T17:07:22.782Z,6.20
2017-12-23T17:09:49.246Z,6.60
2017-12-23T17:12:15.673Z,6.82
2017-12-23T17:14:42.155Z,6.70
2017-12-23T17:17:08.582Z,6.43
2017-12-23T17:19:35.044Z,6.43
2017-12-23T17:22:02.253Z,6.90
2017-12-23T17:24:28.707Z,7.30
2017-12-23T17:26:55.191Z,6.62
2017-12-23T17:29:33.839Z,6.75
2017-12-23T17:32:01.006Z,6.07
2017-12-23T17:34:27.524Z,6.30
2017-12-23T17:36:54.098Z,6.50
2017-12-23T17:39:21.289Z,8.48
2017-12-23T17:41:47.754Z,7.00
2017-12-23T17:44:14.204Z,7.72
2017-12-23T17:46:40.649Z,7.55
2017-12-23T17:49:07.074Z,7.12
2017-12-23T17:51:33.586Z,7.15
2017-12-23T17:54:00.019Z,7.10
2017-12-23T17:56:26.449Z,6.68
2017-12-23T17:58:53.610Z,7.40
2017-12-23T18:01:20.041Z,8.70
2017-12-23T18:03:46.472Z,7.10
2017-12-23T18:06:12.939Z,6.72
2017-12-23T18:08:40.116Z,7.20
2017-12-23T18:11:06.623Z,7.07
2017-12-23T18:13:33.092Z,8.75
2017-12-23T18:15:59.546Z,7.87
2017-12-23T18:18:26.166Z,9.32
2017-12-23T18:20:52.624Z,9.07
2017-12-23T18:23:19.053Z,10.77
2017-12-23T18:25:45.582Z,8.15
2017-12-23T18:28:12.049Z,9.38
2017-12-23T18:30:38.547Z,9.40
2017-12-23T18:33:04.998Z,9.18
2017-12-23T18:35:31.528Z,9.50
2017-12-23T18:37:57.969Z,10.23
2017-12-23T18:40:24.466Z,10.10
2017-12-23T18:42:51.018Z,10.43
2017-12-23T18:45:17.481Z,10.85
2017-12-23T18:47:43.938Z,8.60
2017-12-23T18:50:10.398Z,10.57
2017-12-23T18:52:36.850Z,9.80
2017-12-23T18:55:03.345Z,10.02
2017-12-23T18:57:30.514Z,10.52
2017-12-23T18:59:56.984Z,10.52
2017-12-23T19:02:23.418Z,11.38
2017-12-23T19:04:49.898Z,11.80
2017-12-23T19:07:16.382Z,11.38
2017-12-23T19:09:42.856Z,12.88
2017-12-23T19:12:10.035Z,11.90
2017-12-23T19:14:36.498Z,11.27
2017-12-23T19:17:03.023Z,10.50
2017-12-23T19:19:29.485Z,12.43
2017-12-23T19:21:56.783Z,10.02
2017-12-23T19:24:23.250Z,9.73
2017-12-23T19:26:49.693Z,10.20
2017-12-23T19:29:16.182Z,10.07
2017-12-23T19:31:42.660Z,9.98
2017-12-23T19:34:09.225Z,9.88
2017-12-23T19:36:36.425Z,9.80
2017-12-23T19:39:02.950Z,10.45
2017-12-23T19:41:29.419Z,10.70
2017-12-23T19:43:55.905Z,9.50
2017-12-23T19:46:22.343Z,8.93
2017-12-23T19:48:48.794Z,8.68
2017-12-23T19:51:15.340Z,9.43
2017-12-23T19:53:41.829Z,9.93
2017-12-23T19:56:09.017Z,9.18
2017-12-23T19:58:35.580Z,9.02
2017-12-23T20:01:02.045Z,10.68
2017-12-23T20:03:28.560Z,11.75
2017-12-23T20:05:55.078Z,9.95
2017-12-23T20:08:21.535Z,9.35
2017-12-23T20:10:48.090Z,10.10
2017-12-23T20:13:14.643Z,10.57
2017-12-23T20:15:41.198Z,10.68
2017-12-23T20:18:08.510Z,10.90
2017-12-23T20:20:34.950Z,10.57
2017-12-23T20:23:01.455Z,11.10
2017-12-23T20:25:27.857Z,11.73
2017-12-23T20:27:54.300Z,11.12
2017-12-23T20:30:20.787Z,11.25
2017-12-23T20:32:47.251Z,11.98
2017-12-23T20:35:13.725Z,12.15
2017-12-23T20:37:40.325Z,15.63
2017-12-23T20:40:06.798Z,12.27
2017-12-23T20:42:33.990Z,14.07
2017-12-23T20:45:00.465Z,12.65
2017-12-23T20:47:26.913Z,14.98
2017-12-23T20:49:54.109Z,17.42
2017-12-23T20:52:20.587Z,13.98
2017-12-23T20:54:47.043Z,13.00
2017-12-23T20:57:14.473Z,14.43
2017-12-23T20:59:40.892Z,14.73
2017-12-23T21:02:07.318Z,13.98
2017-12-23T21:04:33.775Z,14.15
2017-12-23T21:07:00.226Z,13.40
2017-12-23T21:09:26.661Z,15.05
2017-12-23T21:11:53.096Z,15.48
2017-12-23T21:14:19.600Z,13.10
2017-12-23T21:16:46.047Z,15.55
2017-12-23T21:19:12.579Z,12.85
2017-12-23T21:21:39.060Z,12.10
2017-12-23T21:24:05.497Z,12.88
2017-12-23T21:26:32.026Z,11.50
2017-12-23T21:28:58.494Z,12.40
2017-12-23T21:31:25.687Z,11.55
2017-12-23T21:33:52.914Z,12.85
2017-12-23T21:36:19.383Z,15.65
2017-12-23T21:38:45.847Z,12.57
2017-12-23T21:41:12.305Z,13.95
2017-12-23T21:43:38.737Z,13.43
2017-12-23T21:46:05.381Z,11.77
2017-12-23T21:48:31.841Z,12.98
2017-12-23T21:50:59.027Z,11.63
2017-12-23T21:53:25.458Z,10.50
2017-12-23T21:55:51.912Z,11.65
2017-12-23T21:58:18.365Z,10.32
2017-12-23T22:00:44.804Z,10.95
2017-12-23T22:03:11.282Z,10.00
2017-12-23T22:05:37.790Z,11.45
2017-12-23T22:08:04.965Z,11.70
2017-12-23T22:10:31.443Z,10.43
2017-12-23T22:12:58.746Z,10.20
2017-12-23T22:15:25.471Z,10.35
2017-12-23T22:17:52.062Z,9.80
2017-12-23T22:20:18.541Z,10.77
2017-12-23T22:22:45.730Z,9.45
2017-12-23T22:25:12.178Z,11.40
2017-12-23T22:27:38.622Z,10.93
2017-12-23T22:30:05.094Z,9.32
2017-12-23T22:32:31.585Z,10.95
2017-12-23T22:34:58.042Z,10.50
2017-12-23T22:37:24.477Z,10.98
2017-12-23T22:39:50.960Z,11.02
2017-12-23T22:42:29.605Z,9.38
2017-12-23T22:44:56.071Z,10.75
2017-12-23T22:47:22.527Z,10.25
2017-12-23T22:49:49.162Z,9.70
2017-12-23T22:52:16.360Z,9.18
2017-12-23T22:54:42.917Z,10.70
2017-12-23T22:57:09.366Z,10.05
2017-12-23T22:59:36.086Z,10.18
2017-12-23T23:02:02.497Z,9.90
2017-12-23T23:04:28.974Z,9.00
2017-12-23T23:06:55.465Z,10.10
2017-12-23T23:09:21.925Z,9.90
2017-12-23T23:11:48.403Z,10.32
2017-12-23T23:14:14.870Z,9.65
2017-12-23T23:16:41.299Z,11.07
2017-12-23T23:19:07.739Z,9.15
2017-12-23T23:21:34.195Z,9.90
2017-12-23T23:24:00.618Z,9.45
2017-12-23T23:26:27.013Z,9.40
2017-12-23T23:28:53.471Z,11.35
2017-12-23T23:31:19.934Z,9.23
2017-12-23T23:33:46.374Z,10.10
2017-12-23T23:36:12.838Z,9.65
2017-12-23T23:38:39.357Z,10.60
2017-12-23T23:41:05.870Z,9.93
2017-12-23T23:43:32.333Z,10.35
2017-12-23T23:45:58.776Z,9.38
2017-12-23T23:48:25.233Z,9.35
2017-12-23T23:50:52.474Z,9.50
2017-12-23T23:53:18.892Z,11.60
2017-12-23T23:55:45.316Z,9.18
2017-12-23T23:58:12.453Z,10.00
